createdAt,value
2022-10-11T00:01:34.695Z,13.43
2022-10-11T00:04:01.254Z,13.48
2022-10-11T00:06:27.641Z,13.46
2022-10-11T00:08:54.066Z,13.48
2022-10-11T00:11:20.494Z,13.40
2022-10-11T00:13:46.880Z,13.35
2022-10-11T00:16:15.325Z,13.34
2022-10-11T00:18:42.269Z,13.36
2022-10-11T00:21:12.079Z,13.36
2022-10-11T00:23:38.929Z,13.21
2022-10-11T00:26:08.975Z,13.24
2022-10-11T00:28:36.540Z,13.18
2022-10-11T00:31:07.697Z,13.17
2022-10-11T00:33:34.399Z,13.06
2022-10-11T00:36:01.131Z,13.05
2022-10-11T00:38:27.569Z,13.07
2022-10-11T00:40:54.099Z,13.04
2022-10-11T00:43:23.841Z,12.80
2022-10-11T00:45:56.098Z,12.79
2022-10-11T00:48:44.546Z,12.78
2022-10-11T00:51:23.700Z,12.75
2022-10-11T00:53:51.498Z,12.77
2022-10-11T00:56:24.885Z,12.73
2022-10-11T00:58:52.108Z,12.68
2022-10-11T01:01:18.738Z,12.63
2022-10-11T01:03:45.697Z,12.63
2022-10-11T01:06:12.158Z,12.57
2022-10-11T01:08:39.154Z,12.55
2022-10-11T01:11:06.459Z,12.44
2022-10-11T01:13:36.177Z,12.34
2022-10-11T01:16:14.793Z,12.24
2022-10-11T01:18:54.122Z,12.15
2022-10-11T01:21:32.296Z,12.13
2022-10-11T01:24:08.703Z,12.11
2022-10-11T01:27:12.977Z,11.99
2022-10-11T01:29:49.439Z,11.88
2022-10-11T01:32:17.311Z,11.82
2022-10-11T01:34:52.900Z,11.70
2022-10-11T01:37:29.116Z,11.66
2022-10-11T01:40:06.033Z,11.61
2022-10-11T01:42:33.714Z,11.55
2022-10-11T01:45:00.368Z,11.46
2022-10-11T01:47:27.148Z,11.40
2022-10-11T01:49:58.760Z,11.42
2022-10-11T01:52:33.998Z,11.34
2022-10-11T01:55:15.656Z,11.19
2022-10-11T01:57:48.615Z,11.13
2022-10-11T02:00:34.061Z,10.85
2022-10-11T02:03:15.894Z,10.87
2022-10-11T02:05:46.864Z,10.94
2022-10-11T02:08:25.604Z,10.93
2022-10-11T02:10:58.778Z,10.69
2022-10-11T02:13:39.514Z,10.69
2022-10-11T02:16:10.921Z,10.67
2022-10-11T02:18:42.188Z,10.65
2022-10-11T02:21:13.392Z,10.64
2022-10-11T02:23:48.025Z,10.47
2022-10-11T02:26:14.757Z,10.31
2022-10-11T02:28:43.676Z,10.22
2022-10-11T02:31:11.849Z,10.21
2022-10-11T02:33:51.956Z,10.12
2022-10-11T02:36:26.543Z,10.03
2022-10-11T02:38:59.675Z,9.83
2022-10-11T02:41:38.562Z,9.64
2022-10-11T02:44:10.960Z,9.28
2022-10-11T02:46:38.618Z,9.20
2022-10-11T02:49:07.318Z,9.06
2022-10-11T02:51:33.890Z,8.94
2022-10-11T02:54:00.403Z,9.02
2022-10-11T02:56:26.911Z,8.91
2022-10-11T02:58:53.288Z,8.96
2022-10-11T03:01:19.756Z,8.71
2022-10-11T03:03:46.384Z,8.47
2022-10-11T03:06:13.042Z,8.46
2022-10-11T03:08:39.617Z,8.26
2022-10-11T03:11:06.127Z,8.15
2022-10-11T03:13:32.968Z,8.05
2022-10-11T03:16:07.364Z,7.97
2022-10-11T03:18:34.063Z,7.90
2022-10-11T03:21:00.452Z,7.84
2022-10-11T03:23:26.896Z,7.86
2022-10-11T03:25:53.322Z,7.72
2022-10-11T03:28:20.537Z,7.70
2022-10-11T03:30:48.407Z,7.64
2022-10-11T03:33:15.020Z,7.67
2022-10-11T03:35:44.467Z,7.53
2022-10-11T03:38:14.534Z,7.55
2022-10-11T03:40:41.949Z,7.30
2022-10-11T03:43:08.627Z,7.25
2022-10-11T03:45:35.172Z,7.14
2022-10-11T03:48:01.694Z,7.17
2022-10-11T03:50:28.505Z,7.17
2022-10-11T03:52:54.927Z,7.20
2022-10-11T03:55:21.303Z,7.17
2022-10-11T03:57:47.717Z,7.14
2022-10-11T04:00:14.271Z,7.05
2022-10-11T04:02:40.726Z,6.90
2022-10-11T04:05:07.725Z,6.82
2022-10-11T04:07:34.480Z,6.77
2022-10-11T04:10:00.994Z,6.76
2022-10-11T04:12:27.450Z,6.71
2022-10-11T04:14:53.831Z,6.69
2022-10-11T04:17:20.248Z,6.60
2022-10-11T04:19:46.647Z,6.64
2022-10-11T04:22:13.122Z,6.54
2022-10-11T04:24:39.496Z,6.51
2022-10-11T04:27:06.286Z,6.36
2022-10-11T04:29:33.151Z,6.29
2022-10-11T04:31:59.953Z,6.24
2022-10-11T04:34:26.463Z,6.06
2022-10-11T04:36:53.125Z,6.08
2022-10-11T04:39:19.605Z,6.05
2022-10-11T04:41:46.093Z,5.98
2022-10-11T04:44:12.989Z,6.09
2022-10-11T04:46:39.396Z,6.02
2022-10-11T04:49:06.127Z,5.96
2022-10-11T04:51:33.794Z,5.93
2022-10-11T04:54:00.379Z,5.87
2022-10-11T04:56:26.782Z,5.87
2022-10-11T04:58:54.591Z,5.75
2022-10-11T05:01:21.469Z,5.78
2022-10-11T05:03:47.917Z,5.63
2022-10-11T05:06:14.717Z,5.62
2022-10-11T05:08:41.343Z,5.53
2022-10-11T05:11:10.905Z,5.66
2022-10-11T05:13:37.515Z,5.63
2022-10-11T05:16:09.775Z,5.65
2022-10-11T05:18:37.729Z,5.64
2022-10-11T05:21:14.699Z,5.65
2022-10-11T05:23:41.168Z,5.63
2022-10-11T05:26:08.334Z,5.62
2022-10-11T05:28:35.273Z,5.66
2022-10-11T05:31:01.722Z,5.69
2022-10-11T05:33:28.354Z,5.74
2022-10-11T05:35:54.726Z,5.63
2022-10-11T05:38:21.646Z,5.55
2022-10-11T05:40:48.212Z,5.54
2022-10-11T05:43:15.118Z,5.38
2022-10-11T05:45:43.151Z,5.38
2022-10-11T05:48:10.419Z,5.29
2022-10-11T05:50:37.681Z,5.29
2022-10-11T05:53:04.940Z,5.31
2022-10-11T05:55:39.660Z,5.30
2022-10-11T05:58:07.253Z,5.31
2022-10-11T06:00:37.919Z,5.36
2022-10-11T06:03:08.686Z,5.47
2022-10-11T06:05:35.931Z,5.53
2022-10-11T06:08:03.893Z,5.51
2022-10-11T06:10:30.273Z,5.47
2022-10-11T06:12:56.811Z,5.43
2022-10-11T06:15:23.402Z,5.52
2022-10-11T06:17:49.839Z,5.57
2022-10-11T06:20:16.331Z,5.71
2022-10-11T06:22:42.800Z,5.52
2022-10-11T06:25:09.459Z,5.40
2022-10-11T06:27:36.204Z,5.50
2022-10-11T06:30:03.052Z,5.60
2022-10-11T06:32:29.523Z,5.67
2022-10-11T06:34:55.950Z,5.61
2022-10-11T06:37:22.378Z,5.73
2022-10-11T06:39:50.363Z,5.79
2022-10-11T06:42:17.117Z,5.89
2022-10-11T06:44:43.520Z,5.93
2022-10-11T06:47:10.018Z,6.00
2022-10-11T06:49:36.472Z,6.03
2022-10-11T06:52:02.952Z,6.21
2022-10-11T06:54:29.409Z,6.45
2022-10-11T06:56:55.946Z,6.43
2022-10-11T06:59:22.328Z,6.58
2022-10-11T07:01:48.761Z,6.89
2022-10-11T07:04:15.137Z,6.94
2022-10-11T07:06:41.937Z,7.65
2022-10-11T07:09:08.592Z,7.72
2022-10-11T07:11:35.363Z,7.86
2022-10-11T07:14:07.582Z,7.72
2022-10-11T07:16:36.170Z,8.27
2022-10-11T07:19:04.314Z,8.52
2022-10-11T07:21:32.989Z,8.58
2022-10-11T07:24:00.400Z,10.19
2022-10-11T07:26:27.881Z,11.57
2022-10-11T07:28:54.506Z,11.73
2022-10-11T07:31:23.712Z,10.66
2022-10-11T07:33:50.547Z,10.08
2022-10-11T07:36:17.222Z,11.13
2022-10-11T07:38:46.239Z,12.13
2022-10-11T07:41:13.625Z,11.70
2022-10-11T07:43:40.151Z,12.48
2022-10-11T07:46:07.314Z,12.67
2022-10-11T07:48:35.174Z,12.26
2022-10-11T07:51:06.744Z,13.23
2022-10-11T07:53:42.065Z,13.17
2022-10-11T07:56:12.613Z,12.85
2022-10-11T07:58:40.283Z,12.06
2022-10-11T08:01:07.591Z,12.28
2022-10-11T08:03:34.308Z,12.29
2022-10-11T08:06:07.544Z,11.54
2022-10-11T08:08:34.769Z,11.79
2022-10-11T08:11:01.205Z,12.11
2022-10-11T08:13:27.675Z,11.77
2022-10-11T08:15:54.271Z,11.79
2022-10-11T08:18:20.671Z,11.68
2022-10-11T08:20:47.431Z,12.13
2022-10-11T08:23:14.097Z,12.33
2022-10-11T08:25:43.787Z,12.32
2022-10-11T08:28:15.716Z,12.26
2022-10-11T08:30:48.658Z,12.52
2022-10-11T08:33:16.225Z,12.14
2022-10-11T08:35:42.664Z,12.66
2022-10-11T08:38:09.155Z,12.63
2022-10-11T08:40:36.027Z,12.87
2022-10-11T08:43:14.694Z,12.79
2022-10-11T08:45:41.024Z,12.90
2022-10-11T08:48:38.451Z,13.24
2022-10-11T08:51:14.950Z,12.35
2022-10-11T08:53:46.573Z,12.76
2022-10-11T08:56:15.034Z,14.23
2022-10-11T08:58:47.485Z,15.89
2022-10-11T09:01:19.027Z,15.35
2022-10-11T09:03:47.265Z,14.33
2022-10-11T09:06:50.374Z,14.41
2022-10-11T09:09:40.515Z,15.75
2022-10-11T09:12:41.263Z,15.94
2022-10-11T09:15:20.567Z,15.06
2022-10-11T09:17:46.933Z,16.09
2022-10-11T09:20:40.549Z,17.50
2022-10-11T09:23:42.466Z,16.56
2022-10-11T09:26:35.544Z,16.48
2022-10-11T09:29:14.315Z,16.20
2022-10-11T09:31:41.945Z,17.01
2022-10-11T09:34:15.020Z,18.13
2022-10-11T09:37:11.586Z,17.69
2022-10-11T09:39:45.633Z,19.38
2022-10-11T09:42:12.691Z,18.39
2022-10-11T09:44:45.195Z,19.41
2022-10-11T09:47:16.390Z,19.89
2022-10-11T09:49:51.954Z,20.42
2022-10-11T09:52:21.476Z,20.49
2022-10-11T09:55:00.408Z,18.49
2022-10-11T09:57:30.397Z,19.67
2022-10-11T10:00:12.113Z,18.71
2022-10-11T10:02:44.077Z,21.93
2022-10-11T10:05:10.455Z,18.96
2022-10-11T10:07:57.307Z,18.84
2022-10-11T10:10:59.418Z,18.13
2022-10-11T10:13:28.978Z,20.29
2022-10-11T10:15:59.223Z,21.80
2022-10-11T10:19:02.179Z,21.42
2022-10-11T10:21:33.182Z,20.98
2022-10-11T10:24:04.550Z,19.78
2022-10-11T10:26:32.498Z,22.09
2022-10-11T10:29:05.210Z,22.68
2022-10-11T10:32:08.801Z,19.65
2022-10-11T10:34:31.144Z,19.00
2022-10-11T10:37:05.947Z,20.05
2022-10-11T10:39:57.747Z,20.31
2022-10-11T10:42:24.198Z,19.21
2022-10-11T10:44:57.133Z,18.40
2022-10-11T10:47:42.198Z,18.56
2022-10-11T10:50:32.534Z,20.79
2022-10-11T10:53:20.934Z,20.47
2022-10-11T10:56:01.217Z,22.46
2022-10-11T10:58:52.820Z,22.58
2022-10-11T11:01:27.660Z,21.64
2022-10-11T11:04:22.153Z,21.18
2022-10-11T11:06:59.682Z,20.71
2022-10-11T11:09:39.707Z,18.92
2022-10-11T11:12:34.411Z,19.06
2022-10-11T11:15:31.317Z,18.47
2022-10-11T11:18:01.829Z,18.56
2022-10-11T11:20:40.449Z,18.30
2022-10-11T11:23:20.789Z,18.12
2022-10-11T11:26:01.451Z,18.09
2022-10-11T11:28:42.104Z,17.51
2022-10-11T11:31:37.146Z,16.69
2022-10-11T11:34:26.052Z,19.61
2022-10-11T11:37:00.273Z,17.67
2022-10-11T11:39:34.497Z,17.70
2022-10-11T11:42:08.173Z,18.71
2022-10-11T11:44:45.694Z,19.44
2022-10-11T11:47:19.042Z,20.38
2022-10-11T11:49:52.855Z,19.65
2022-10-11T11:52:32.363Z,18.61
2022-10-11T11:55:16.071Z,18.80
2022-10-11T11:57:51.732Z,18.74
2022-10-11T12:00:21.997Z,18.12
2022-10-11T12:03:02.533Z,18.22
2022-10-11T12:05:33.262Z,17.79
2022-10-11T12:08:01.180Z,16.79
2022-10-11T12:10:30.436Z,17.47
2022-10-11T12:13:16.985Z,17.04
2022-10-11T12:16:13.499Z,15.49
2022-10-11T12:18:58.897Z,15.59
2022-10-11T12:21:28.431Z,15.78
2022-10-11T12:24:00.593Z,19.25
2022-10-11T12:26:35.073Z,18.82
2022-10-11T12:29:03.946Z,20.48
2022-10-11T12:31:35.988Z,18.36
2022-10-11T12:34:02.341Z,19.76
2022-10-11T12:36:31.392Z,21.14
2022-10-11T12:39:19.720Z,19.89
2022-10-11T12:41:53.630Z,21.34
2022-10-11T12:44:29.395Z,22.05
2022-10-11T12:46:56.516Z,20.75
2022-10-11T12:49:38.149Z,21.22
2022-10-11T12:52:25.157Z,19.27
2022-10-11T12:55:06.993Z,18.94
2022-10-11T12:58:12.200Z,20.46
2022-10-11T13:01:05.093Z,20.56
2022-10-11T13:03:50.810Z,18.78
2022-10-11T13:06:26.645Z,20.98
2022-10-11T13:09:25.749Z,19.09
2022-10-11T13:12:20.170Z,18.74
2022-10-11T13:15:09.802Z,19.05
2022-10-11T13:17:38.986Z,19.34
2022-10-11T13:20:23.858Z,19.21
2022-10-11T13:22:55.329Z,17.24
2022-10-11T13:25:24.700Z,16.92
2022-10-11T13:27:53.306Z,17.09
2022-10-11T13:30:25.555Z,17.79
2022-10-11T13:32:53.248Z,17.03
2022-10-11T13:35:28.673Z,16.47
2022-10-11T13:37:55.332Z,16.31
2022-10-11T13:40:23.259Z,16.58
2022-10-11T13:42:52.028Z,16.75
2022-10-11T13:45:24.720Z,16.18
2022-10-11T13:47:52.656Z,17.17
2022-10-11T13:50:31.756Z,16.04
2022-10-11T13:53:07.081Z,16.87
2022-10-11T13:55:36.664Z,16.58
2022-10-11T13:58:15.029Z,16.79
2022-10-11T14:00:54.831Z,16.37
2022-10-11T14:03:22.154Z,15.92
2022-10-11T14:05:55.190Z,16.10
2022-10-11T14:08:34.348Z,16.05
2022-10-11T14:11:06.111Z,15.47
2022-10-11T14:13:47.139Z,16.00
2022-10-11T14:16:27.977Z,15.92
2022-10-11T14:19:09.941Z,16.41
2022-10-11T14:21:45.793Z,16.31
2022-10-11T14:24:13.544Z,16.31
2022-10-11T14:26:43.422Z,15.87
2022-10-11T14:29:27.749Z,15.30
2022-10-11T14:32:01.580Z,15.83
2022-10-11T14:34:28.695Z,15.88
2022-10-11T14:36:55.282Z,15.86
2022-10-11T14:39:24.700Z,15.82
2022-10-11T14:41:52.511Z,15.33
2022-10-11T14:44:20.441Z,15.71
2022-10-11T14:46:49.184Z,15.55
2022-10-11T14:49:20.319Z,15.63
2022-10-11T14:51:49.216Z,15.38
2022-10-11T14:54:18.853Z,15.31
2022-10-11T14:56:46.171Z,15.06
2022-10-11T14:59:18.820Z,14.97
2022-10-11T15:01:53.381Z,15.05
2022-10-11T15:04:25.775Z,14.94
2022-10-11T15:06:54.074Z,15.00
2022-10-11T15:09:21.273Z,15.01
2022-10-11T15:11:49.439Z,15.03
2022-10-11T15:14:16.161Z,15.02
2022-10-11T15:16:43.229Z,14.97
2022-10-11T15:19:21.147Z,14.84
2022-10-11T15:21:47.846Z,14.88
2022-10-11T15:24:14.993Z,14.89
2022-10-11T15:26:41.927Z,14.69
2022-10-11T15:29:11.304Z,14.76
2022-10-11T15:31:37.981Z,14.69
2022-10-11T15:34:04.429Z,14.77
2022-10-11T15:36:30.948Z,14.27
2022-10-11T15:38:57.385Z,14.27
2022-10-11T15:41:24.206Z,14.28
2022-10-11T15:43:50.766Z,14.32
2022-10-11T15:46:22.237Z,14.19
2022-10-11T15:48:49.929Z,14.11
2022-10-11T15:51:17.019Z,14.22
2022-10-11T15:53:43.411Z,14.07
2022-10-11T15:56:19.458Z,14.19
2022-10-11T15:58:46.024Z,14.09
2022-10-11T16:01:18.886Z,13.90
2022-10-11T16:03:48.372Z,13.80
2022-10-11T16:06:16.467Z,13.58
2022-10-11T16:08:43.124Z,13.48
2022-10-11T16:11:10.529Z,13.13
2022-10-11T16:13:37.000Z,12.81
2022-10-11T16:16:05.497Z,12.66
2022-10-11T16:18:35.355Z,12.14
2022-10-11T16:21:06.842Z,12.26
2022-10-11T16:23:33.474Z,12.05
2022-10-11T16:26:02.302Z,11.89
2022-10-11T16:28:29.674Z,11.77
2022-10-11T16:30:56.944Z,11.53
2022-10-11T16:33:23.641Z,11.35
2022-10-11T16:35:50.117Z,11.14
2022-10-11T16:38:16.944Z,11.07
2022-10-11T16:40:43.455Z,11.00
2022-10-11T16:43:10.191Z,10.89
2022-10-11T16:45:37.019Z,10.94
2022-10-11T16:48:03.985Z,10.65
2022-10-11T16:50:31.733Z,10.39
2022-10-11T16:52:59.944Z,10.20
2022-10-11T16:55:26.527Z,10.07
2022-10-11T16:57:52.948Z,9.99
2022-10-11T17:00:19.879Z,9.87
2022-10-11T17:02:46.366Z,9.91
2022-10-11T17:05:12.831Z,9.90
2022-10-11T17:07:39.574Z,9.80
2022-10-11T17:10:06.649Z,9.70
2022-10-11T17:12:35.446Z,9.56
2022-10-11T17:15:01.870Z,9.53
2022-10-11T17:17:28.310Z,9.32
2022-10-11T17:19:54.748Z,9.16
2022-10-11T17:22:21.248Z,9.05
2022-10-11T17:24:47.674Z,8.99
2022-10-11T17:27:14.448Z,8.94
2022-10-11T17:29:41.155Z,8.91
2022-10-11T17:32:07.673Z,8.84
2022-10-11T17:34:34.348Z,8.69
2022-10-11T17:37:00.933Z,8.65
2022-10-11T17:39:27.522Z,8.52
2022-10-11T17:41:53.947Z,8.42
2022-10-11T17:44:21.649Z,8.35
2022-10-11T17:46:48.373Z,8.36
2022-10-11T17:49:15.072Z,8.35
2022-10-11T17:51:42.043Z,8.31
2022-10-11T17:54:13.181Z,8.16
2022-10-11T17:56:41.710Z,8.13
2022-10-11T17:59:14.825Z,7.92
2022-10-11T18:01:41.464Z,7.95
2022-10-11T18:04:10.123Z,7.84
2022-10-11T18:06:39.540Z,7.73
2022-10-11T18:09:06.359Z,7.69
2022-10-11T18:11:32.993Z,7.64
2022-10-11T18:13:59.653Z,7.59
2022-10-11T18:16:28.278Z,7.49
2022-10-11T18:18:57.236Z,7.52
2022-10-11T18:21:33.413Z,7.38
2022-10-11T18:24:03.070Z,7.33
2022-10-11T18:26:30.858Z,7.36
2022-10-11T18:28:58.197Z,7.31
2022-10-11T18:31:28.039Z,7.22
2022-10-11T18:33:55.166Z,7.22
2022-10-11T18:36:24.338Z,7.24
2022-10-11T18:38:56.516Z,7.00
2022-10-11T18:41:25.251Z,7.17
2022-10-11T18:43:54.909Z,7.10
2022-10-11T18:46:22.378Z,7.03
2022-10-11T18:48:50.626Z,6.96
2022-10-11T18:51:23.038Z,6.96
2022-10-11T18:53:50.085Z,6.88
2022-10-11T18:56:20.659Z,6.79
2022-10-11T18:58:48.530Z,6.72
2022-10-11T19:01:18.755Z,6.75
2022-10-11T19:03:47.187Z,6.70
2022-10-11T19:06:17.603Z,6.65
2022-10-11T19:08:48.408Z,6.51
2022-10-11T19:11:16.216Z,6.43
2022-10-11T19:13:43.108Z,6.34
2022-10-11T19:16:15.701Z,6.23
2022-10-11T19:18:44.425Z,6.24
2022-10-11T19:21:13.300Z,6.24
2022-10-11T19:23:42.133Z,6.26
2022-10-11T19:26:13.520Z,6.35
2022-10-11T19:28:40.022Z,6.28
2022-10-11T19:31:11.698Z,6.30
2022-10-11T19:33:38.126Z,6.27
2022-10-11T19:36:06.699Z,6.14
2022-10-11T19:38:34.831Z,6.18
2022-10-11T19:41:02.880Z,6.12
2022-10-11T19:43:29.316Z,6.01
2022-10-11T19:46:06.538Z,6.12
2022-10-11T19:48:39.529Z,6.02
2022-10-11T19:51:09.350Z,6.14
2022-10-11T19:53:36.607Z,6.07
2022-10-11T19:56:05.200Z,6.01
2022-10-11T19:58:31.625Z,5.90
2022-10-11T20:01:07.172Z,6.11
2022-10-11T20:03:34.205Z,5.83
2022-10-11T20:06:02.258Z,5.79
2022-10-11T20:08:31.257Z,5.74
2022-10-11T20:11:02.332Z,5.57
2022-10-11T20:13:33.936Z,5.68
2022-10-11T20:16:04.159Z,5.63
2022-10-11T20:18:31.467Z,5.70
2022-10-11T20:21:03.427Z,5.64
2022-10-11T20:23:30.944Z,5.60
2022-10-11T20:26:02.048Z,5.56
2022-10-11T20:28:31.219Z,5.48
2022-10-11T20:30:58.696Z,5.48
2022-10-11T20:33:25.977Z,5.47
2022-10-11T20:36:04.443Z,5.47
2022-10-11T20:38:32.486Z,5.39
2022-10-11T20:40:59.386Z,5.19
2022-10-11T20:43:26.097Z,5.10
2022-10-11T20:46:00.620Z,5.10
2022-10-11T20:48:27.194Z,4.99
2022-10-11T20:50:53.770Z,5.04
2022-10-11T20:53:20.245Z,5.08
2022-10-11T20:55:47.046Z,5.09
2022-10-11T20:58:13.480Z,5.02
2022-10-11T21:00:40.646Z,4.96
2022-10-11T21:03:07.132Z,4.96
2022-10-11T21:05:33.699Z,4.97
2022-10-11T21:08:00.450Z,5.00
2022-10-11T21:10:27.577Z,4.91
2022-10-11T21:12:55.682Z,4.90
2022-10-11T21:15:22.081Z,4.81
2022-10-11T21:17:48.605Z,4.76
2022-10-11T21:20:15.382Z,4.81
2022-10-11T21:22:41.767Z,4.86
2022-10-11T21:25:08.308Z,4.75
2022-10-11T21:27:35.081Z,4.81
2022-10-11T21:30:01.695Z,4.76
2022-10-11T21:32:28.115Z,4.84
2022-10-11T21:34:54.519Z,4.78
2022-10-11T21:37:20.929Z,4.78
2022-10-11T21:39:47.367Z,4.71
2022-10-11T21:42:13.849Z,4.65
2022-10-11T21:44:43.120Z,4.59
2022-10-11T21:47:10.352Z,4.56
2022-10-11T21:49:36.959Z,4.65
2022-10-11T21:52:04.236Z,4.54
2022-10-11T21:54:30.626Z,4.49
2022-10-11T21:56:57.040Z,4.49
2022-10-11T21:59:23.430Z,4.42
2022-10-11T22:01:49.909Z,4.41
2022-10-11T22:04:16.356Z,4.28
2022-10-11T22:06:42.748Z,4.24
2022-10-11T22:09:09.349Z,4.23
2022-10-11T22:11:35.982Z,4.16
2022-10-11T22:14:02.871Z,4.24
2022-10-11T22:16:29.427Z,4.18
2022-10-11T22:18:56.226Z,4.19
2022-10-11T22:21:23.901Z,4.15
2022-10-11T22:23:53.382Z,4.12
2022-10-11T22:26:22.512Z,4.16
2022-10-11T22:28:49.232Z,4.17
2022-10-11T22:31:18.082Z,4.07
2022-10-11T22:36:17.238Z,3.95
2022-10-11T22:38:44.076Z,4.22
2022-10-11T22:41:10.728Z,4.08
2022-10-11T22:43:37.702Z,4.00
2022-10-11T22:46:05.462Z,4.13
2022-10-11T22:48:31.939Z,4.04
2022-10-11T22:50:58.592Z,3.92
2022-10-11T22:53:25.001Z,3.85
2022-10-11T22:55:51.442Z,3.84
2022-10-11T22:58:17.921Z,3.77
2022-10-11T23:00:44.362Z,3.66
2022-10-11T23:03:15.643Z,3.74
2022-10-11T23:05:42.571Z,3.75
2022-10-11T23:08:09.471Z,3.69
2022-10-11T23:10:39.688Z,3.62
2022-10-11T23:13:07.765Z,3.58
2022-10-11T23:15:34.189Z,3.61
2022-10-11T23:18:00.703Z,3.57
2022-10-11T23:20:27.290Z,3.62
2022-10-11T23:22:53.697Z,3.54
2022-10-11T23:25:20.319Z,3.59
2022-10-11T23:27:46.754Z,3.50
2022-10-11T23:30:13.467Z,3.48
2022-10-11T23:32:39.896Z,3.48
2022-10-11T23:35:06.579Z,3.37
2022-10-11T23:37:33.025Z,3.22
2022-10-11T23:39:59.454Z,3.39
2022-10-11T23:42:25.859Z,3.34
2022-10-11T23:44:52.910Z,3.37
2022-10-11T23:47:19.368Z,3.36
2022-10-11T23:49:45.759Z,3.31
2022-10-11T23:52:12.203Z,3.33
2022-10-11T23:54:38.581Z,3.27
2022-10-11T23:57:04.973Z,3.27
2022-10-11T23:59:31.468Z,3.33
